createdAt,value
2018-01-16T00:00:40.566Z,98914.62
2018-01-16T00:03:07.682Z,98903.48
2018-01-16T00:05:35.860Z,98909.28
2018-01-16T00:08:01.813Z,98924.77
2018-01-16T00:10:27.868Z,98926.53
2018-01-16T00:12:53.819Z,98922.58
2018-01-16T00:15:19.781Z,98935.28
2018-01-16T00:17:45.897Z,98941.22
2018-01-16T00:20:11.833Z,98943.11
2018-01-16T00:22:37.793Z,98949.98
2018-01-16T00:25:03.740Z,98958.04
2018-01-16T00:27:29.704Z,98960.55
2018-01-16T00:29:55.645Z,98959.52
2018-01-16T00:32:21.802Z,98958.20
2018-01-16T00:34:47.837Z,98956.99
2018-01-16T00:37:13.801Z,98956.64
2018-01-16T00:39:39.753Z,98958.31
2018-01-16T00:42:05.697Z,98962.13
2018-01-16T00:44:31.645Z,98973.59
2018-01-16T00:46:57.589Z,98965.59
2018-01-16T00:49:23.557Z,98959.27
2018-01-16T00:51:49.513Z,98959.20
2018-01-16T00:54:15.437Z,98957.09
2018-01-16T00:56:41.445Z,98960.93
2018-01-16T00:59:07.381Z,98962.55
2018-01-16T01:01:33.329Z,98968.69
2018-01-16T01:03:59.307Z,98968.20
2018-01-16T01:06:25.255Z,98967.59
2018-01-16T01:08:51.217Z,98967.81
2018-01-16T01:11:17.181Z,98963.23
2018-01-16T01:13:43.136Z,98965.38
2018-01-16T01:16:09.089Z,98958.20
2018-01-16T01:18:35.050Z,98964.87
2018-01-16T01:21:01.013Z,98968.35
2018-01-16T01:23:26.962Z,98968.55
2018-01-16T01:25:52.904Z,98954.94
2018-01-16T01:28:18.888Z,98957.68
2018-01-16T01:30:44.856Z,98955.57
2018-01-16T01:33:10.821Z,98966.93
2018-01-16T01:35:36.769Z,98962.36
2018-01-16T01:38:02.752Z,98958.41
2018-01-16T01:40:29.543Z,98946.23
2018-01-16T01:42:55.488Z,98942.80
2018-01-16T01:45:21.473Z,98944.13
2018-01-16T01:47:47.429Z,98932.75
2018-01-16T01:52:44.653Z,98939.64
2018-01-16T01:55:10.613Z,98934.39
2018-01-16T01:57:36.600Z,98928.56
2018-01-16T02:00:02.633Z,98930.39
2018-01-16T02:02:28.661Z,98935.27
2018-01-16T02:04:54.612Z,98939.70
2018-01-16T02:07:20.563Z,98921.57
2018-01-16T02:09:46.501Z,98905.97
2018-01-16T02:12:12.452Z,98893.53
2018-01-16T02:14:38.405Z,98888.36
2018-01-16T02:17:04.371Z,98875.00
2018-01-16T02:19:30.337Z,98897.89
2018-01-16T02:21:56.277Z,98894.71
2018-01-16T02:24:22.229Z,98888.93
2018-01-16T02:26:48.172Z,98890.77
2018-01-16T02:29:14.113Z,98889.00
2018-01-16T02:31:40.057Z,98895.13
2018-01-16T02:34:05.993Z,98883.41
2018-01-16T02:36:31.998Z,98888.89
2018-01-16T02:38:57.936Z,98896.86
2018-01-16T02:41:23.877Z,98885.84
2018-01-16T02:43:49.829Z,98881.41
2018-01-16T02:46:15.774Z,98895.47
2018-01-16T02:48:41.737Z,98885.36
2018-01-16T02:51:07.945Z,98883.72
2018-01-16T02:53:33.915Z,98883.33
2018-01-16T02:55:59.857Z,98872.25
2018-01-16T02:58:25.800Z,98856.44
2018-01-16T03:00:51.786Z,98852.81
2018-01-16T03:03:17.733Z,98841.70
2018-01-16T03:05:43.684Z,98849.09
2018-01-16T03:08:09.697Z,98850.35
2018-01-16T03:10:35.633Z,98847.98
2018-01-16T03:13:01.577Z,98843.64
2018-01-16T03:15:27.519Z,98831.43
2018-01-16T03:17:53.480Z,98828.06
2018-01-16T03:20:19.424Z,98835.55
2018-01-16T03:22:45.366Z,98836.87
2018-01-16T03:25:11.321Z,98839.33
2018-01-16T03:27:37.256Z,98840.98
2018-01-16T03:30:03.193Z,98836.95
2018-01-16T03:32:29.153Z,98829.94
2018-01-16T03:34:55.129Z,98826.33
2018-01-16T03:37:21.062Z,98821.41
2018-01-16T03:39:47.014Z,98822.25
2018-01-16T03:42:13.018Z,98818.82
2018-01-16T03:44:38.957Z,98815.54
2018-01-16T03:47:04.896Z,98816.63
2018-01-16T03:49:30.968Z,98808.91
2018-01-16T03:51:56.933Z,98804.33
2018-01-16T03:54:22.873Z,98805.02
2018-01-16T03:56:48.818Z,98806.80
2018-01-16T03:59:14.764Z,98806.45
2018-01-16T04:01:40.730Z,98797.58
2018-01-16T04:04:06.693Z,98798.67
2018-01-16T04:06:32.628Z,98790.73
2018-01-16T04:08:58.573Z,98792.23
2018-01-16T04:11:24.541Z,98780.29
2018-01-16T04:13:50.485Z,98782.48
2018-01-16T04:16:16.453Z,98778.46
2018-01-16T04:18:42.403Z,98788.91
2018-01-16T04:21:08.361Z,98796.59
2018-01-16T04:23:34.361Z,98788.73
2018-01-16T04:26:00.316Z,98776.86
2018-01-16T04:28:26.261Z,98771.30
2018-01-16T04:30:52.205Z,98770.67
2018-01-16T04:33:18.145Z,98757.81
2018-01-16T04:35:44.101Z,98769.17
2018-01-16T04:38:10.064Z,98769.97
2018-01-16T04:40:36.005Z,98769.05
2018-01-16T04:43:01.952Z,98768.22
2018-01-16T04:45:27.897Z,98759.57
2018-01-16T04:47:53.846Z,98759.28
2018-01-16T04:50:19.803Z,98752.97
2018-01-16T04:52:45.765Z,98758.50
2018-01-16T04:55:12.117Z,98744.77
2018-01-16T04:57:38.092Z,98741.61
2018-01-16T05:00:04.073Z,98733.51
2018-01-16T05:02:30.040Z,98732.98
2018-01-16T05:04:55.985Z,98722.72
2018-01-16T05:07:21.929Z,98726.00
2018-01-16T05:09:47.869Z,98720.97
2018-01-16T05:12:13.825Z,98720.67
2018-01-16T05:14:39.798Z,98726.97
2018-01-16T05:17:05.753Z,98732.19
2018-01-16T05:19:31.696Z,98721.99
2018-01-16T05:21:57.661Z,98733.40
2018-01-16T05:24:23.705Z,98731.16
2018-01-16T05:26:49.694Z,98740.00
2018-01-16T05:29:15.632Z,98734.50
2018-01-16T05:31:41.625Z,98732.05
2018-01-16T05:34:07.562Z,98735.48
2018-01-16T05:36:33.588Z,98730.03
2018-01-16T05:38:59.545Z,98734.50
2018-01-16T05:41:25.486Z,98723.36
2018-01-16T05:43:51.431Z,98716.65
2018-01-16T05:46:17.361Z,98718.16
2018-01-16T05:48:43.317Z,98718.91
2018-01-16T05:51:09.268Z,98718.08
2018-01-16T05:53:35.212Z,98719.29
2018-01-16T05:56:01.174Z,98720.17
2018-01-16T05:58:27.110Z,98722.52
2018-01-16T06:00:53.056Z,98709.68
2018-01-16T06:03:18.992Z,98712.50
2018-01-16T06:05:44.929Z,98718.95
2018-01-16T06:08:10.873Z,98723.36
2018-01-16T06:10:36.825Z,98719.18
2018-01-16T06:13:02.760Z,98723.66
2018-01-16T06:15:28.709Z,98723.73
2018-01-16T06:17:54.657Z,98727.61
2018-01-16T06:20:20.595Z,98723.95
2018-01-16T06:22:46.540Z,98731.45
2018-01-16T06:25:12.481Z,98724.97
2018-01-16T06:27:38.422Z,98716.03
2018-01-16T06:30:04.376Z,98711.99
2018-01-16T06:32:30.449Z,98715.73
2018-01-16T06:34:56.392Z,98723.25
2018-01-16T06:37:22.341Z,98723.36
2018-01-16T06:39:48.529Z,98717.81
2018-01-16T06:42:14.461Z,98706.83
2018-01-16T06:44:40.412Z,98708.33
2018-01-16T06:47:06.360Z,98710.27
2018-01-16T06:49:32.305Z,98703.52
2018-01-16T06:51:58.245Z,98711.22
2018-01-16T06:54:24.220Z,98706.80
2018-01-16T06:56:50.245Z,98703.27
2018-01-16T06:59:16.254Z,98696.75
2018-01-16T07:01:42.166Z,98710.23
2018-01-16T07:04:08.109Z,98706.72
2018-01-16T07:06:34.049Z,98704.59
2018-01-16T07:09:00.000Z,98704.59
2018-01-16T07:11:26.018Z,98705.64
2018-01-16T07:13:51.988Z,98698.80
2018-01-16T07:16:17.938Z,98697.66
2018-01-16T07:18:43.890Z,98700.23
2018-01-16T07:21:09.845Z,98699.82
2018-01-16T07:23:35.818Z,98703.97
2018-01-16T07:26:01.774Z,98706.61
2018-01-16T07:28:27.717Z,98706.83
2018-01-16T07:30:53.669Z,98698.53
2018-01-16T07:33:19.649Z,98691.07
2018-01-16T07:35:45.590Z,98693.12
2018-01-16T07:38:11.561Z,98705.53
2018-01-16T07:40:37.580Z,98702.09
2018-01-16T07:43:03.533Z,98705.02
2018-01-16T07:45:29.462Z,98715.69
2018-01-16T07:47:55.396Z,98719.78
2018-01-16T07:50:21.390Z,98723.36
2018-01-16T07:52:47.353Z,98732.11
2018-01-16T07:55:13.353Z,98735.00
2018-01-16T07:57:39.368Z,98744.17
2018-01-16T08:00:05.320Z,98741.02
2018-01-16T08:02:31.272Z,98732.70
2018-01-16T08:04:57.213Z,98732.73
2018-01-16T08:07:23.178Z,98738.85
2018-01-16T08:09:49.115Z,98727.67
2018-01-16T08:12:15.077Z,98730.42
2018-01-16T08:14:41.181Z,98717.30
2018-01-16T08:17:07.129Z,98715.61
2018-01-16T08:19:33.060Z,98714.91
2018-01-16T08:21:59.005Z,98727.41
2018-01-16T08:24:24.968Z,98722.61
2018-01-16T08:26:50.905Z,98713.09
2018-01-16T08:29:16.863Z,98718.41
2018-01-16T08:31:42.797Z,98709.11
2018-01-16T08:34:08.797Z,98721.34
2018-01-16T08:36:34.737Z,98717.78
2018-01-16T08:39:00.697Z,98719.02
2018-01-16T08:41:26.645Z,98717.59
2018-01-16T08:43:52.617Z,98730.25
2018-01-16T08:46:18.580Z,98723.98
2018-01-16T08:48:44.527Z,98721.13
2018-01-16T08:51:10.475Z,98721.13
2018-01-16T08:53:36.405Z,98724.78
2018-01-16T08:56:02.365Z,98712.42
2018-01-16T08:58:28.317Z,98710.80
2018-01-16T09:00:54.260Z,98715.05
2018-01-16T09:03:20.422Z,98710.68
2018-01-16T09:05:46.374Z,98708.64
2018-01-16T09:08:12.373Z,98725.61
2018-01-16T09:10:38.321Z,98726.05
2018-01-16T09:13:04.264Z,98735.66
2018-01-16T09:15:30.234Z,98735.48
2018-01-16T09:17:56.168Z,98734.36
2018-01-16T09:20:22.120Z,98742.80
2018-01-16T09:22:48.071Z,98731.23
2018-01-16T09:25:14.077Z,98737.50
2018-01-16T09:27:40.053Z,98730.09
2018-01-16T09:30:06.000Z,98730.84
2018-01-16T09:32:31.938Z,98742.97
2018-01-16T09:34:58.041Z,98739.33
2018-01-16T09:37:23.992Z,98739.14
2018-01-16T09:39:49.944Z,98732.25
2018-01-16T09:42:15.880Z,98724.29
2018-01-16T09:44:41.826Z,98719.02
2018-01-16T09:47:07.773Z,98716.17
2018-01-16T09:49:33.709Z,98730.02
2018-01-16T09:51:59.645Z,98731.30
2018-01-16T09:54:25.590Z,98725.02
2018-01-16T09:56:51.526Z,98739.55
2018-01-16T09:59:17.467Z,98740.55
2018-01-16T10:01:43.461Z,98724.80
2018-01-16T10:04:09.397Z,98732.33
2018-01-16T10:06:35.348Z,98736.80
2018-01-16T10:09:01.310Z,98739.22
2018-01-16T10:11:27.273Z,98747.12
2018-01-16T10:13:53.229Z,98745.72
2018-01-16T10:16:19.184Z,98745.93
2018-01-16T10:18:45.136Z,98767.35
2018-01-16T10:21:11.109Z,98762.08
2018-01-16T10:23:37.046Z,98760.75
2018-01-16T10:26:03.012Z,98769.40
2018-01-16T10:28:28.964Z,98764.50
2018-01-16T10:30:54.945Z,98761.34
2018-01-16T10:33:20.888Z,98755.98
2018-01-16T10:35:46.878Z,98794.19
2018-01-16T10:38:12.797Z,98794.83
2018-01-16T10:40:38.812Z,98781.36
2018-01-16T10:43:04.756Z,98805.94
2018-01-16T10:45:30.721Z,98834.39
2018-01-16T10:47:56.677Z,98857.30
2018-01-16T10:50:22.646Z,98875.81
2018-01-16T10:52:48.609Z,98851.00
2018-01-16T10:55:14.552Z,98856.83
2018-01-16T10:57:40.588Z,98883.54
2018-01-16T11:00:06.524Z,98870.52
2018-01-16T11:02:32.481Z,98871.79
2018-01-16T11:04:58.461Z,98882.12
2018-01-16T11:07:24.421Z,98873.05
2018-01-16T11:09:50.376Z,98878.69
2018-01-16T11:12:16.347Z,98893.94
2018-01-16T11:14:42.317Z,98880.63
2018-01-16T11:17:08.251Z,98870.09
2018-01-16T11:19:34.232Z,98889.50
2018-01-16T11:22:00.178Z,98897.09
2018-01-16T11:24:26.121Z,98894.45
2018-01-16T11:26:52.161Z,98897.20
2018-01-16T11:29:18.125Z,98901.27
2018-01-16T11:31:44.090Z,98899.91
2018-01-16T11:34:10.093Z,98899.84
2018-01-16T11:36:36.029Z,98904.25
2018-01-16T11:39:01.969Z,98908.39
2018-01-16T11:41:27.905Z,98904.32
2018-01-16T11:43:53.849Z,98910.19
2018-01-16T11:46:19.801Z,98912.17
2018-01-16T11:48:45.749Z,98916.59
2018-01-16T11:51:11.702Z,98909.09
2018-01-16T11:53:37.649Z,98913.67
2018-01-16T11:56:03.625Z,98912.42
2018-01-16T11:58:29.565Z,98904.66
2018-01-16T12:00:55.541Z,98897.66
2018-01-16T12:03:21.469Z,98959.53
2018-01-16T12:05:47.428Z,98930.95
2018-01-16T12:08:13.354Z,98917.97
2018-01-16T12:10:39.316Z,98910.92
2018-01-16T12:13:05.257Z,98908.80
2018-01-16T12:15:31.219Z,98903.85
2018-01-16T12:17:57.169Z,98940.89
2018-01-16T12:20:23.112Z,98957.17
2018-01-16T12:22:49.084Z,98969.28
2018-01-16T12:25:15.014Z,98966.13
2018-01-16T12:27:40.989Z,98966.70
2018-01-16T12:30:06.947Z,98968.67
2018-01-16T12:32:32.881Z,98959.98
2018-01-16T12:34:58.845Z,98951.63
2018-01-16T12:37:24.790Z,98951.85
2018-01-16T12:39:50.725Z,98950.02
2018-01-16T12:42:16.668Z,98965.73
2018-01-16T12:44:42.650Z,98962.64
2018-01-16T12:47:08.582Z,98945.47
2018-01-16T12:49:34.553Z,98949.08
2018-01-16T12:52:01.422Z,98966.83
2018-01-16T12:54:27.473Z,98960.41
2018-01-16T12:56:53.432Z,98949.95
2018-01-16T12:59:19.377Z,98942.55
2018-01-16T13:01:45.321Z,98937.37
2018-01-16T13:04:11.281Z,98940.83
2018-01-16T13:06:37.234Z,98933.75
2018-01-16T13:09:03.178Z,98917.75
2018-01-16T13:11:29.121Z,98922.45
2018-01-16T13:13:55.182Z,98924.47
2018-01-16T13:16:21.116Z,98931.58
2018-01-16T13:18:47.137Z,98937.89
2018-01-16T13:21:13.078Z,98938.88
2018-01-16T13:23:39.041Z,98952.02
2018-01-16T13:26:04.989Z,98962.56
2018-01-16T13:28:30.941Z,98960.23
2018-01-16T13:30:56.877Z,98974.28
2018-01-16T13:33:22.825Z,98984.20
2018-01-16T13:35:48.761Z,98971.31
2018-01-16T13:38:14.713Z,98976.47
2018-01-16T13:40:40.672Z,98979.01
2018-01-16T13:43:06.616Z,98953.62
2018-01-16T13:45:32.589Z,98936.64
2018-01-16T13:47:58.533Z,98947.58
2018-01-16T13:50:24.474Z,98939.55
2018-01-16T13:52:50.526Z,98941.67
2018-01-16T13:55:16.498Z,98944.94
2018-01-16T13:57:42.462Z,98942.59
2018-01-16T14:00:08.501Z,98943.98
2018-01-16T14:02:34.465Z,98936.98
2018-01-16T14:05:00.412Z,98943.29
2018-01-16T14:07:26.385Z,98944.60
2018-01-16T14:09:52.792Z,98948.16
2018-01-16T14:12:18.741Z,98957.00
2018-01-16T14:14:44.693Z,98958.14
2018-01-16T14:17:10.657Z,98958.31
2018-01-16T14:19:36.644Z,98965.45
2018-01-16T14:22:02.585Z,98967.16
2018-01-16T14:24:28.552Z,98974.68
2018-01-16T14:26:54.600Z,98980.66
2018-01-16T14:29:20.570Z,98989.44
2018-01-16T14:31:46.594Z,98998.23
2018-01-16T14:34:12.684Z,98992.31
2018-01-16T14:36:38.646Z,98979.13
2018-01-16T14:39:04.613Z,98982.20
2018-01-16T14:41:30.573Z,98970.02
2018-01-16T14:43:56.536Z,98961.41
2018-01-16T14:46:22.476Z,98965.22
2018-01-16T14:48:48.474Z,98973.65
2018-01-16T14:51:14.440Z,98978.72
2018-01-16T14:53:40.404Z,98986.86
2018-01-16T14:56:06.358Z,99008.91
2018-01-16T14:58:32.344Z,99019.52
2018-01-16T15:00:58.313Z,99027.05
2018-01-16T15:03:24.301Z,99016.20
2018-01-16T15:05:50.306Z,99001.27
2018-01-16T15:08:16.266Z,98993.91
2018-01-16T15:10:42.216Z,99003.45
2018-01-16T15:13:08.241Z,99009.14
2018-01-16T15:15:34.176Z,99011.09
2018-01-16T15:18:00.157Z,99016.59
2018-01-16T15:20:26.112Z,99014.59
2018-01-16T15:22:52.090Z,99007.23
2018-01-16T15:25:18.031Z,99001.62
2018-01-16T15:27:43.980Z,98997.43
2018-01-16T15:30:09.957Z,99006.50
2018-01-16T15:32:35.955Z,99009.03
2018-01-16T15:35:01.869Z,99014.88
2018-01-16T15:37:27.905Z,99016.88
2018-01-16T15:39:53.852Z,99020.73
2018-01-16T15:42:19.821Z,99035.36
2018-01-16T15:44:45.790Z,99046.83
2018-01-16T15:47:11.733Z,99063.91
2018-01-16T15:49:37.693Z,99066.02
2018-01-16T15:52:03.640Z,99053.63
2018-01-16T15:54:29.588Z,99047.47
2018-01-16T15:56:55.545Z,99027.20
2018-01-16T15:59:21.558Z,99022.39
2018-01-16T16:01:47.590Z,99021.36
2018-01-16T16:04:13.565Z,99015.05
2018-01-16T16:06:39.509Z,99010.33
2018-01-16T16:09:05.461Z,99009.93
2018-01-16T16:11:31.401Z,99015.63
2018-01-16T16:13:57.380Z,99017.57
2018-01-16T16:16:23.312Z,99019.65
2018-01-16T16:18:49.274Z,99009.59
2018-01-16T16:21:15.234Z,99012.13
2018-01-16T16:23:41.177Z,99019.41
2018-01-16T16:26:07.126Z,99017.92
2018-01-16T16:28:33.080Z,99010.70
2018-01-16T16:30:59.035Z,99008.56
2018-01-16T16:33:24.984Z,99016.19
2018-01-16T16:35:50.941Z,98999.03
2018-01-16T16:38:16.898Z,99002.66
2018-01-16T16:40:42.842Z,98999.83
2018-01-16T16:43:08.851Z,99005.41
2018-01-16T16:45:34.803Z,98994.04
2018-01-16T16:48:00.749Z,98996.91
2018-01-16T16:50:26.704Z,98997.92
2018-01-16T16:52:52.889Z,99004.64
2018-01-16T16:55:18.845Z,99001.05
2018-01-16T16:57:44.824Z,99006.15
2018-01-16T17:00:10.864Z,99004.47
2018-01-16T17:02:36.881Z,99002.02
2018-01-16T17:05:02.831Z,98990.70
2018-01-16T17:07:28.921Z,98997.13
2018-01-16T17:09:54.868Z,99002.70
2018-01-16T17:12:20.897Z,98995.41
2018-01-16T17:14:46.853Z,98984.46
2018-01-16T17:17:12.807Z,98995.65
2018-01-16T17:19:38.877Z,98997.30
2018-01-16T17:22:04.897Z,99006.31
2018-01-16T17:24:30.876Z,99006.16
2018-01-16T17:26:56.817Z,99026.30
2018-01-16T17:29:22.781Z,99017.41
2018-01-16T17:31:48.909Z,99004.44
2018-01-16T17:34:14.886Z,98997.09
2018-01-16T17:36:40.820Z,99000.34
2018-01-16T17:39:06.766Z,99008.56
2018-01-16T17:41:32.850Z,98999.10
2018-01-16T17:43:58.802Z,98994.25
2018-01-16T17:46:24.814Z,98998.41
2018-01-16T17:48:50.878Z,99012.87
2018-01-16T17:51:16.817Z,99018.04
2018-01-16T17:53:42.774Z,99035.73
2018-01-16T17:56:08.927Z,99021.25
2018-01-16T17:58:34.877Z,99036.94
2018-01-16T18:01:00.834Z,99028.02
2018-01-16T18:03:26.822Z,99020.66
2018-01-16T18:05:52.757Z,98994.95
2018-01-16T18:08:18.735Z,98987.30
2018-01-16T18:10:44.766Z,98986.23
2018-01-16T18:13:10.719Z,98991.96
2018-01-16T18:15:36.735Z,98988.29
2018-01-16T18:18:02.669Z,98987.94
2018-01-16T18:20:28.689Z,98993.47
2018-01-16T18:22:54.823Z,98994.62
2018-01-16T18:25:20.765Z,99004.77
2018-01-16T18:27:46.796Z,99010.85
2018-01-16T18:30:12.753Z,99019.75
2018-01-16T18:32:38.719Z,99014.30
2018-01-16T18:35:04.662Z,98993.45
2018-01-16T18:37:30.698Z,99002.02
2018-01-16T18:39:56.665Z,99014.30
2018-01-16T18:42:22.658Z,99009.55
2018-01-16T18:44:48.598Z,99004.88
2018-01-16T18:47:14.606Z,99007.35
2018-01-16T18:49:40.554Z,99007.58
2018-01-16T18:52:06.549Z,99002.00
2018-01-16T18:54:32.496Z,98997.02
2018-01-16T18:56:58.481Z,98999.55
2018-01-16T18:59:24.429Z,99004.09
2018-01-16T19:01:50.430Z,99004.19
2018-01-16T19:04:16.361Z,98996.91
2018-01-16T19:06:42.313Z,99005.58
2018-01-16T19:09:08.260Z,99013.62
2018-01-16T19:11:34.257Z,99003.33
2018-01-16T19:14:00.229Z,99004.88
2018-01-16T19:16:26.187Z,99006.50
2018-01-16T19:18:52.158Z,99000.42
2018-01-16T19:21:18.107Z,99007.06
2018-01-16T19:23:44.058Z,99005.52
2018-01-16T19:26:10.020Z,99011.48
2018-01-16T19:28:35.945Z,99016.89
2018-01-16T19:31:01.885Z,99014.65
2018-01-16T19:33:27.845Z,99011.09
2018-01-16T19:35:53.810Z,99007.52
2018-01-16T19:38:19.766Z,99000.98
2018-01-16T19:40:45.698Z,98992.38
2018-01-16T19:43:11.738Z,99001.50
2018-01-16T19:45:37.701Z,98997.31
2018-01-16T19:48:03.658Z,98991.73
2018-01-16T19:50:29.609Z,98981.69
2018-01-16T19:52:55.556Z,98979.22
2018-01-16T19:55:21.489Z,98972.45
2018-01-16T19:57:47.441Z,98967.05
2018-01-16T20:00:13.419Z,98966.95
2018-01-16T20:02:39.390Z,98969.01
2018-01-16T20:05:05.317Z,98972.78
2018-01-16T20:07:31.276Z,98961.19
2018-01-16T20:09:57.251Z,98959.02
2018-01-16T20:12:23.235Z,98954.29
2018-01-16T20:14:49.313Z,98950.00
2018-01-16T20:17:15.269Z,98949.27
2018-01-16T20:19:41.208Z,98949.70
2018-01-16T20:22:07.141Z,98938.74
2018-01-16T20:24:33.116Z,98946.66
2018-01-16T20:26:59.085Z,98950.81
2018-01-16T20:29:25.037Z,98958.00
2018-01-16T20:31:51.009Z,98953.52
2018-01-16T20:34:16.948Z,98956.67
2018-01-16T20:36:42.910Z,98941.45
2018-01-16T20:39:08.965Z,98944.09
2018-01-16T20:41:34.909Z,98948.84
2018-01-16T20:44:00.885Z,98948.28
2018-01-16T20:46:26.849Z,98950.84
2018-01-16T20:48:52.801Z,98949.31
2018-01-16T20:51:18.760Z,98950.04
2018-01-16T20:53:44.689Z,98957.12
2018-01-16T20:56:10.634Z,98949.70
2018-01-16T20:58:36.652Z,98951.39
2018-01-16T21:01:02.617Z,98943.58
2018-01-16T21:03:28.635Z,98946.73
2018-01-16T21:05:54.652Z,98940.83
2018-01-16T21:08:20.692Z,98942.55
2018-01-16T21:10:46.783Z,98939.09
2018-01-16T21:13:12.767Z,98943.47
2018-01-16T21:15:38.705Z,98939.50
2018-01-16T21:18:04.650Z,98935.44
2018-01-16T21:20:30.589Z,98939.91
2018-01-16T21:22:56.543Z,98935.83
2018-01-16T21:25:22.495Z,98925.31
2018-01-16T21:27:48.445Z,98917.75
2018-01-16T21:30:14.422Z,98923.07
2018-01-16T21:32:40.365Z,98918.37
2018-01-16T21:35:06.309Z,98914.98
2018-01-16T21:37:32.265Z,98925.27
2018-01-16T21:39:58.225Z,98913.45
2018-01-16T21:42:24.173Z,98911.39
2018-01-16T21:44:50.192Z,98920.91
2018-01-16T21:47:16.147Z,98907.58
2018-01-16T21:49:42.154Z,98909.15
2018-01-16T21:52:08.113Z,98910.83
2018-01-16T21:54:34.074Z,98911.22
2018-01-16T21:57:00.042Z,98908.48
2018-01-16T21:59:25.981Z,98900.37
2018-01-16T22:01:51.940Z,98902.78
2018-01-16T22:04:17.885Z,98910.73
2018-01-16T22:06:43.833Z,98908.59
2018-01-16T22:09:09.777Z,98914.08
2018-01-16T22:11:35.717Z,98916.16
2018-01-16T22:14:01.729Z,98908.98
2018-01-16T22:16:27.670Z,98909.61
2018-01-16T22:18:53.687Z,98910.52
2018-01-16T22:21:19.625Z,98900.44
2018-01-16T22:23:45.573Z,98892.64
2018-01-16T22:26:11.513Z,98884.56
2018-01-16T22:28:37.462Z,98880.75
2018-01-16T22:31:03.444Z,98878.66
2018-01-16T22:33:29.410Z,98877.52
2018-01-16T22:35:55.377Z,98881.12
2018-01-16T22:38:21.322Z,98887.48
2018-01-16T22:40:47.357Z,98886.41
2018-01-16T22:43:13.358Z,98889.03
2018-01-16T22:45:39.308Z,98889.73
2018-01-16T22:48:05.259Z,98880.67
2018-01-16T22:50:31.192Z,98881.98
2018-01-16T22:52:57.156Z,98878.20
2018-01-16T22:55:23.100Z,98874.89
2018-01-16T22:57:49.041Z,98865.47
2018-01-16T23:00:14.994Z,98869.83
2018-01-16T23:02:40.949Z,98862.02
2018-01-16T23:05:07.934Z,98860.88
2018-01-16T23:07:33.908Z,98859.61
2018-01-16T23:09:59.849Z,98859.84
2018-01-16T23:12:25.793Z,98859.56
2018-01-16T23:14:51.742Z,98856.17
2018-01-16T23:17:17.686Z,98853.83
2018-01-16T23:19:43.632Z,98849.98
2018-01-16T23:22:09.583Z,98841.48
2018-01-16T23:24:35.517Z,98854.22
2018-01-16T23:27:01.458Z,98844.02
2018-01-16T23:29:27.394Z,98845.67
2018-01-16T23:31:53.372Z,98848.89
2018-01-16T23:34:19.412Z,98843.51
2018-01-16T23:36:45.490Z,98843.39
2018-01-16T23:39:11.461Z,98841.37
2018-01-16T23:41:37.442Z,98840.45
2018-01-16T23:44:03.381Z,98837.31
2018-01-16T23:46:29.409Z,98833.81
2018-01-16T23:48:55.357Z,98836.78
2018-01-16T23:51:21.332Z,98834.79
2018-01-16T23:53:47.268Z,98826.85
2018-01-16T23:56:13.231Z,98820.43
2018-01-16T23:58:39.198Z,98813.00
